Magnet, Nebraska
Current Conditions -  °F | °C
As of 10:15 AM on Sunday 23 Nov 2014 (Local Time) from KLCG Reporting Station
Overcast Overcast  
Wind Chill: 35°   Ceiling: 5000
Heat Index: 44°   Visibility: 10mi
Dew Point: 38°   Wind: 21mph
Humidity: 80%   Direction: 330°NNW
Pressure: 29.57"   Gusts: 33mph
Location:  42.46°N, 97.47°W
Report Text: KLCG 231615Z AUTO 33018G29KT 10SM BKN050 OVC065 06/03 A2957 RMK AO2 T00640031
Loading
Personal Weather Stations






























Interactive Weather Map New forecast layout! Learn more

10-Day Weather Forecast

Advertisements
Track Severe Weather on mobile